Terminal Aerodrome Forecast
Issued by NWS Denver/Boulder, CO

Home | Current Version | Previous Version | Text Only | Print | Product List | Glossary On
Versions: 1 2 3 4 5 6 7 8 9 10 11 12 13 14 15 16 17 18 19 20 21 22 23 24 25 26 27 28 29 30 31 32 33 34 35 36
000
FTUS45 KBOU 230534
TAFDEN
TAF
KDEN 230534Z 2306/2412 34012KT P6SM SCT060 BKN090
     FM231200 05010KT P6SM SCT020 BKN060
      TEMPO 2314/2318 BKN020
     FM231800 07012KT P6SM SCT022 OVC050
      TEMPO 2319/2323 -SHRA BKN022
     FM232300 04012KT P6SM -RA BKN015 OVC030
     FM240400 07008KT 4SM -RA BR OVC010=

USA.gov is the U.S. government's official web portal to all federal, state and local government web resources and services.